Time;durP1;ratioP1;P1;durP2;ratioP2;P2;SDS_P1;SDS_P2;PMS_P1;PMS_P2;Temp;Humidity;BMP_temperature;BMP_pressure;BME280_temperature;BME280_humidity;BME280_pressure;Samples;Min_cycle;Max_cycle;Signal;HPM_P1;HPM_P2
2023/06/06 00:02:19;;;;;;;10.55;5.78;;;;;;;;;;5010080;28;20040;-60
2023/06/06 00:04:49;;;;;;;9.88;5.55;;;;;;;;;;4995253;28;20390;-60
2023/06/06 00:07:18;;;;;;;11.90;5.88;;;;;;;;;;4991065;28;20534;-59
2023/06/06 00:09:43;;;;;;;10.13;6.03;;;;;;;;;;5012026;28;20033;-60
2023/06/06 00:12:12;;;;;;;10.70;5.63;;;;;;;;;;5006542;28;20111;-60
2023/06/06 00:14:40;;;;;;;11.63;5.40;;;;;;;;;;5012795;28;20025;-59
2023/06/06 00:17:06;;;;;;;9.02;5.82;;;;;;;;;;5009209;28;20045;-59
2023/06/06 00:19:32;;;;;;;10.77;6.18;;;;;;;;;;5011039;28;20091;-60
2023/06/06 00:21:58;;;;;;;10.43;5.85;;;;;;;;;;5010084;28;20034;-60
2023/06/06 00:24:24;;;;;;;10.65;5.60;;;;;;;;;;5015154;28;20063;-60
2023/06/06 00:26:50;;;;;;;10.40;5.72;;;;;;;;;;5019090;28;20044;-60
2023/06/06 00:29:15;;;;;;;8.80;5.60;;;;;;;;;;5012134;28;20026;-60
2023/06/06 00:31:41;;;;;;;11.00;5.80;;;;;;;;;;5015738;28;20030;-60
2023/06/06 00:34:06;;;;;;;10.25;5.57;;;;;;;;;;5019460;28;20029;-60
2023/06/06 00:36:31;;;;;;;9.68;6.10;;;;;;;;;;5002405;28;20022;-60
2023/06/06 00:38:57;;;;;;;11.82;5.85;;;;;;;;;;5003143;28;20050;-60
2023/06/06 00:41:22;;;;;;;11.27;6.45;;;;;;;;;;5010425;28;20385;-60
2023/06/06 00:43:48;;;;;;;10.00;5.97;;;;;;;;;;5015650;28;20033;-59
2023/06/06 00:46:15;;;;;;;10.88;5.75;;;;;;;;;;5025126;28;20176;-59
2023/06/06 00:48:41;;;;;;;9.57;6.30;;;;;;;;;;5014403;28;20060;-59
2023/06/06 00:51:08;;;;;;;12.32;6.28;;;;;;;;;;5015391;28;20116;-59
2023/06/06 00:53:34;;;;;;;12.95;6.20;;;;;;;;;;5001799;28;20033;-59
2023/06/06 00:55:59;;;;;;;8.82;5.75;;;;;;;;;;5033390;28;20179;-59
2023/06/06 00:58:26;;;;;;;13.52;6.53;;;;;;;;;;5018996;28;20105;-60
2023/06/06 01:00:52;;;;;;;11.93;5.88;;;;;;;;;;5012911;28;20505;-59
2023/06/06 01:03:19;;;;;;;10.55;6.07;;;;;;;;;;5009636;28;20038;-60
2023/06/06 01:05:45;;;;;;;10.20;6.10;;;;;;;;;;4996456;28;20116;-59
2023/06/06 01:08:12;;;;;;;9.52;6.00;;;;;;;;;;5010394;28;20486;-60
2023/06/06 01:10:39;;;;;;;14.98;6.25;;;;;;;;;;5014095;28;20116;-59
2023/06/06 01:13:23;;;;;;;10.05;5.55;;;;;;;;;;5011082;28;20057;-60
2023/06/06 01:15:57;;;;;;;10.20;6.20;;;;;;;;;;5027668;28;20033;-60
2023/06/06 01:18:24;;;;;;;10.93;6.40;;;;;;;;;;5034049;28;20033;-60
2023/06/06 01:20:51;;;;;;;11.80;6.15;;;;;;;;;;5030630;28;20478;-60
2023/06/06 01:23:17;;;;;;;9.70;6.40;;;;;;;;;;5010763;28;20026;-60
2023/06/06 01:25:47;;;;;;;11.63;6.20;;;;;;;;;;4999733;28;20050;-60
2023/06/06 01:28:15;;;;;;;9.80;5.55;;;;;;;;;;5027741;28;20029;-60
2023/06/06 01:30:42;;;;;;;10.65;6.07;;;;;;;;;;5018247;28;20136;-60
2023/06/06 01:33:29;;;;;;;10.05;6.07;;;;;;;;;;4997178;28;20034;-60
2023/06/06 01:36:06;;;;;;;12.07;6.50;;;;;;;;;;5004393;28;20079;-60
2023/06/06 01:38:37;;;;;;;11.07;6.22;;;;;;;;;;5009957;28;20026;-59
2023/06/06 01:41:03;;;;;;;11.45;6.70;;;;;;;;;;5014768;28;20140;-59
2023/06/06 01:43:31;;;;;;;12.32;6.47;;;;;;;;;;5011725;28;20121;-59
2023/06/06 01:45:57;;;;;;;12.20;6.55;;;;;;;;;;5024149;28;20031;-60
2023/06/06 01:48:24;;;;;;;11.80;6.90;;;;;;;;;;4994995;28;20053;-60
2023/06/06 01:50:50;;;;;;;15.05;6.43;;;;;;;;;;5001988;28;20030;-60
2023/06/06 01:53:15;;;;;;;12.90;6.47;;;;;;;;;;4994569;28;20034;-60
2023/06/06 01:55:41;;;;;;;10.65;5.93;;;;;;;;;;5019929;28;20042;-60
2023/06/06 01:58:07;;;;;;;13.82;6.28;;;;;;;;;;5013669;28;20041;-60
2023/06/06 02:00:33;;;;;;;11.60;6.63;;;;;;;;;;5013345;28;20386;-60
2023/06/06 02:02:58;;;;;;;11.15;6.50;;;;;;;;;;5013088;28;20096;-60
2023/06/06 02:05:23;;;;;;;11.27;6.32;;;;;;;;;;5028104;28;20393;-60
2023/06/06 02:07:49;;;;;;;12.85;6.85;;;;;;;;;;5032631;28;20219;-60
2023/06/06 02:10:15;;;;;;;13.18;6.57;;;;;;;;;;5033921;28;20484;-60
2023/06/06 02:12:41;;;;;;;11.45;6.50;;;;;;;;;;5032961;28;20060;-60
2023/06/06 02:15:07;;;;;;;10.65;6.28;;;;;;;;;;5014564;28;20033;-60
2023/06/06 02:17:33;;;;;;;12.40;6.97;;;;;;;;;;5030757;28;20033;-60
2023/06/06 02:19:59;;;;;;;12.70;6.53;;;;;;;;;;5032589;28;20036;-60
2023/06/06 02:22:24;;;;;;;12.13;6.78;;;;;;;;;;5030399;28;20041;-60
2023/06/06 02:24:52;;;;;;;13.05;6.45;;;;;;;;;;5021078;28;20037;-60
2023/06/06 02:27:18;;;;;;;12.07;6.93;;;;;;;;;;5033322;28;20474;-60
2023/06/06 02:29:43;;;;;;;11.30;6.55;;;;;;;;;;5032651;28;20132;-60
2023/06/06 02:32:10;;;;;;;12.63;6.57;;;;;;;;;;5028497;28;20359;-60
2023/06/06 02:34:35;;;;;;;12.02;6.43;;;;;;;;;;5012592;28;20034;-60
2023/06/06 02:37:02;;;;;;;13.45;6.80;;;;;;;;;;5016037;28;20034;-60
2023/06/06 02:39:27;;;;;;;12.15;6.57;;;;;;;;;;5028191;28;20037;-60
2023/06/06 02:41:53;;;;;;;10.90;6.53;;;;;;;;;;5033194;28;20090;-60
2023/06/06 02:44:19;;;;;;;16.08;7.05;;;;;;;;;;5025589;28;20112;-60
2023/06/06 02:46:45;;;;;;;10.90;6.70;;;;;;;;;;5032718;28;20030;-60
2023/06/06 02:49:10;;;;;;;12.38;6.70;;;;;;;;;;5024286;28;20121;-60
2023/06/06 02:51:36;;;;;;;12.23;6.85;;;;;;;;;;5032260;28;20042;-60
2023/06/06 02:54:02;;;;;;;12.48;6.85;;;;;;;;;;5029846;28;20040;-60
2023/06/06 02:56:27;;;;;;;12.30;6.95;;;;;;;;;;5030860;28;20025;-60
2023/06/06 02:58:53;;;;;;;11.20;7.07;;;;;;;;;;5031410;28;20029;-60
2023/06/06 03:01:20;;;;;;;11.57;6.60;;;;;;;;;;5013034;28;20029;-60
2023/06/06 03:03:47;;;;;;;13.10;6.47;;;;;;;;;;5017485;28;20048;-60
2023/06/06 03:06:15;;;;;;;10.82;6.90;;;;;;;;;;5027591;28;20033;-60
2023/06/06 03:08:41;;;;;;;11.98;7.13;;;;;;;;;;5026189;28;20172;-60
2023/06/06 03:11:06;;;;;;;14.18;6.97;;;;;;;;;;5010263;28;20372;-60
2023/06/06 03:13:32;;;;;;;13.60;7.25;;;;;;;;;;5011384;28;20033;-60
2023/06/06 03:15:57;;;;;;;15.73;6.95;;;;;;;;;;5029553;28;20033;-60
2023/06/06 03:18:24;;;;;;;11.77;7.07;;;;;;;;;;5032114;28;20060;-60
2023/06/06 03:20:53;;;;;;;13.48;6.57;;;;;;;;;;5024188;28;20038;-60
2023/06/06 03:23:20;;;;;;;11.75;6.45;;;;;;;;;;5003580;28;20550;-60
2023/06/06 03:25:49;;;;;;;13.45;7.03;;;;;;;;;;5001816;28;20042;-60
2023/06/06 03:28:17;;;;;;;14.48;6.90;;;;;;;;;;5008247;28;20176;-60
2023/06/06 03:30:42;;;;;;;14.30;6.97;;;;;;;;;;4992643;28;20076;-59
2023/06/06 03:33:08;;;;;;;12.32;6.72;;;;;;;;;;4997290;28;20037;-60
2023/06/06 03:35:34;;;;;;;14.07;7.20;;;;;;;;;;5014872;28;20034;-59
2023/06/06 03:38:01;;;;;;;13.30;7.38;;;;;;;;;;5010362;28;20041;-60
2023/06/06 03:40:27;;;;;;;11.90;6.78;;;;;;;;;;5010084;28;20050;-60
2023/06/06 03:42:52;;;;;;;12.63;7.18;;;;;;;;;;5013247;28;20033;-60
2023/06/06 03:45:18;;;;;;;16.40;7.78;;;;;;;;;;5003070;28;20117;-60
2023/06/06 03:47:45;;;;;;;12.30;7.18;;;;;;;;;;5006569;28;20231;-60
2023/06/06 03:50:11;;;;;;;12.50;7.32;;;;;;;;;;4995390;28;20482;-60
2023/06/06 03:52:37;;;;;;;11.73;7.20;;;;;;;;;;5003932;28;20038;-60
2023/06/06 03:55:03;;;;;;;12.48;6.90;;;;;;;;;;5029462;28;20070;-60
2023/06/06 03:57:29;;;;;;;13.93;7.10;;;;;;;;;;5030319;28;20041;-60
2023/06/06 03:59:55;;;;;;;13.25;7.68;;;;;;;;;;4993661;28;20038;-60
2023/06/06 04:02:20;;;;;;;15.18;7.30;;;;;;;;;;4994544;28;20490;-60
2023/06/06 04:04:51;;;;;;;12.23;6.97;;;;;;;;;;5011376;28;20029;-61
2023/06/06 04:07:17;;;;;;;13.05;7.35;;;;;;;;;;5002482;28;20459;-59
2023/06/06 04:09:43;;;;;;;12.45;6.93;;;;;;;;;;5007980;28;20354;-59
2023/06/06 04:12:09;;;;;;;16.92;6.88;;;;;;;;;;5028780;28;20495;-59
2023/06/06 04:14:34;;;;;;;14.77;7.63;;;;;;;;;;5025797;28;20080;-59
2023/06/06 04:17:01;;;;;;;15.80;7.47;;;;;;;;;;4992526;28;20057;-59
2023/06/06 04:19:27;;;;;;;13.15;7.07;;;;;;;;;;4991914;28;20065;-59
2023/06/06 04:21:54;;;;;;;12.48;7.40;;;;;;;;;;5006194;28;20430;-59
2023/06/06 04:24:20;;;;;;;11.32;6.93;;;;;;;;;;5016050;28;20030;-60
2023/06/06 04:26:46;;;;;;;14.98;7.68;;;;;;;;;;5000325;28;20164;-59
2023/06/06 04:29:13;;;;;;;13.35;6.88;;;;;;;;;;5016645;28;20034;-60
2023/06/06 04:31:40;;;;;;;14.48;7.57;;;;;;;;;;5023705;28;20069;-59
2023/06/06 04:34:09;;;;;;;15.38;7.93;;;;;;;;;;5028490;28;20044;-60
2023/06/06 04:36:38;;;;;;;13.43;7.45;;;;;;;;;;5027458;28;20040;-60
2023/06/06 04:39:07;;;;;;;13.57;7.00;;;;;;;;;;5015958;28;20410;-59
2023/06/06 04:41:33;;;;;;;13.70;7.40;;;;;;;;;;5015815;28;20025;-59
2023/06/06 04:44:02;;;;;;;15.10;7.05;;;;;;;;;;4992882;28;20030;-59
2023/06/06 04:46:31;;;;;;;13.27;7.55;;;;;;;;;;5019306;28;20390;-59
2023/06/06 04:48:59;;;;;;;12.85;7.57;;;;;;;;;;5014518;28;20387;-59
2023/06/06 04:51:32;;;;;;;14.57;7.50;;;;;;;;;;5004686;28;20057;-60
2023/06/06 04:54:01;;;;;;;13.98;7.80;;;;;;;;;;5008357;28;20113;-59
2023/06/06 04:56:30;;;;;;;13.65;7.57;;;;;;;;;;5014368;28;20112;-59
2023/06/06 04:58:57;;;;;;;15.52;7.80;;;;;;;;;;5004712;28;20428;-59
2023/06/06 05:01:23;;;;;;;13.73;7.57;;;;;;;;;;4992087;28;20053;-59
2023/06/06 05:03:50;;;;;;;15.75;8.35;;;;;;;;;;5007234;28;20037;-57
2023/06/06 05:06:16;;;;;;;13.60;7.63;;;;;;;;;;5017375;28;20037;-59
2023/06/06 05:08:44;;;;;;;13.55;7.68;;;;;;;;;;5010713;28;20042;-59
2023/06/06 05:11:11;;;;;;;16.83;8.45;;;;;;;;;;5016255;28;20030;-59
2023/06/06 05:13:36;;;;;;;15.77;7.65;;;;;;;;;;5005707;28;20042;-58
2023/06/06 05:16:02;;;;;;;13.23;7.57;;;;;;;;;;5002725;28;20052;-59
2023/06/06 05:18:30;;;;;;;12.88;7.30;;;;;;;;;;5022958;28;20060;-60
2023/06/06 05:20:57;;;;;;;15.90;7.85;;;;;;;;;;5022772;28;20036;-60
2023/06/06 05:23:24;;;;;;;15.15;7.70;;;;;;;;;;5008020;28;20116;-61
2023/06/06 05:25:50;;;;;;;14.20;7.38;;;;;;;;;;5005914;28;20164;-60
2023/06/06 05:28:15;;;;;;;16.05;7.93;;;;;;;;;;5018590;28;20388;-60
2023/06/06 05:30:41;;;;;;;15.38;8.27;;;;;;;;;;5022478;28;20038;-60
2023/06/06 05:33:08;;;;;;;13.90;7.43;;;;;;;;;;4994758;28;20440;-60
2023/06/06 05:35:34;;;;;;;13.93;7.88;;;;;;;;;;5003450;28;20041;-60
2023/06/06 05:37:59;;;;;;;17.88;8.45;;;;;;;;;;5022140;28;20433;-59
2023/06/06 05:40:25;;;;;;;14.75;8.30;;;;;;;;;;5019574;28;20046;-59
2023/06/06 05:42:50;;;;;;;13.75;7.85;;;;;;;;;;5009816;28;20062;-61
2023/06/06 05:45:15;;;;;;;11.93;7.68;;;;;;;;;;5000152;28;20066;-60
2023/06/06 05:47:41;;;;;;;12.52;8.10;;;;;;;;;;4995073;28;20037;-61
2023/06/06 05:50:07;;;;;;;13.50;8.00;;;;;;;;;;5013033;28;20042;-61
2023/06/06 05:52:32;;;;;;;11.13;7.53;;;;;;;;;;5014219;28;20056;-59
2023/06/06 05:55:03;;;;;;;12.27;7.68;;;;;;;;;;5014573;28;20030;-61
2023/06/06 05:57:28;;;;;;;16.90;7.90;;;;;;;;;;5014793;28;20025;-60
2023/06/06 05:59:54;;;;;;;13.50;7.88;;;;;;;;;;5012372;28;20041;-60
2023/06/06 06:02:20;;;;;;;13.80;7.70;;;;;;;;;;5004507;28;20030;-60
2023/06/06 06:04:45;;;;;;;16.40;7.78;;;;;;;;;;4992340;28;20035;-60
2023/06/06 06:07:12;;;;;;;12.85;7.50;;;;;;;;;;4994457;28;20402;-60
2023/06/06 06:09:37;;;;;;;15.82;7.85;;;;;;;;;;4992332;28;20113;-60
2023/06/06 06:12:04;;;;;;;13.85;7.65;;;;;;;;;;5027003;28;20116;-60
2023/06/06 06:14:29;;;;;;;15.38;8.07;;;;;;;;;;5018718;28;20034;-60
2023/06/06 06:16:55;;;;;;;14.38;8.10;;;;;;;;;;5013140;28;20033;-60
2023/06/06 06:19:20;;;;;;;13.77;8.10;;;;;;;;;;5012911;28;20045;-61
2023/06/06 06:21:45;;;;;;;14.85;7.93;;;;;;;;;;5011879;28;20466;-61
2023/06/06 06:24:11;;;;;;;15.43;7.75;;;;;;;;;;5013792;28;20029;-60
2023/06/06 06:26:36;;;;;;;13.57;7.70;;;;;;;;;;5026360;28;20409;-60
2023/06/06 06:29:01;;;;;;;15.82;7.80;;;;;;;;;;5021102;28;20085;-60
2023/06/06 06:31:27;;;;;;;15.55;7.50;;;;;;;;;;4994114;28;20478;-61
2023/06/06 06:33:53;;;;;;;12.57;7.88;;;;;;;;;;4993204;28;20022;-60
2023/06/06 06:36:18;;;;;;;13.95;8.10;;;;;;;;;;4992490;28;20061;-60
2023/06/06 06:38:44;;;;;;;15.82;7.78;;;;;;;;;;5009296;28;20060;-60
2023/06/06 06:41:09;;;;;;;13.77;8.25;;;;;;;;;;5021755;28;20430;-60
2023/06/06 06:43:35;;;;;;;13.63;8.30;;;;;;;;;;5011827;28;20107;-60
2023/06/06 06:46:00;;;;;;;13.93;7.80;;;;;;;;;;5005438;28;20034;-60
2023/06/06 06:48:25;;;;;;;16.17;8.02;;;;;;;;;;4993670;28;20433;-60
2023/06/06 06:50:52;;;;;;;12.93;7.85;;;;;;;;;;4992650;28;20575;-60
2023/06/06 06:53:18;;;;;;;14.32;7.85;;;;;;;;;;4993551;28;20057;-61
2023/06/06 06:55:45;;;;;;;16.27;8.30;;;;;;;;;;4992686;28;20030;-60
2023/06/06 06:58:13;;;;;;;14.75;8.10;;;;;;;;;;4993103;28;20491;-59
2023/06/06 07:00:39;;;;;;;13.05;7.85;;;;;;;;;;4994084;28;20065;-60
2023/06/06 07:03:05;;;;;;;14.13;7.97;;;;;;;;;;5008346;28;20069;-60
2023/06/06 07:05:31;;;;;;;19.17;8.13;;;;;;;;;;5010246;28;20132;-60
2023/06/06 07:07:56;;;;;;;14.70;8.43;;;;;;;;;;5030005;28;20441;-61
2023/06/06 07:10:25;;;;;;;15.82;8.50;;;;;;;;;;5032518;28;20033;-60
2023/06/06 07:12:52;;;;;;;14.80;8.38;;;;;;;;;;5019874;28;20101;-60
2023/06/06 07:15:19;;;;;;;15.55;8.13;;;;;;;;;;5013152;28;20080;-61
2023/06/06 07:17:49;;;;;;;15.45;8.30;;;;;;;;;;5006374;28;20114;-60
2023/06/06 07:20:15;;;;;;;17.60;8.73;;;;;;;;;;5012481;28;20437;-59
2023/06/06 07:22:41;;;;;;;14.45;8.25;;;;;;;;;;5017377;28;20037;-60
2023/06/06 07:25:08;;;;;;;11.57;7.43;;;;;;;;;;5032045;28;20037;-60
2023/06/06 07:27:35;;;;;;;14.88;7.75;;;;;;;;;;5032063;28;20112;-60
2023/06/06 07:30:06;;;;;;;16.00;8.25;;;;;;;;;;5032180;28;20037;-60
2023/06/06 07:32:33;;;;;;;14.05;8.60;;;;;;;;;;5024373;28;20401;-60
2023/06/06 07:34:59;;;;;;;15.63;8.68;;;;;;;;;;5031311;28;20475;-60
2023/06/06 07:37:24;;;;;;;13.52;7.90;;;;;;;;;;5031877;28;20041;-60
2023/06/06 07:39:50;;;;;;;14.00;7.93;;;;;;;;;;5012654;28;20531;-60
2023/06/06 07:42:15;;;;;;;14.05;7.68;;;;;;;;;;5010750;28;20060;-60
2023/06/06 07:44:40;;;;;;;13.18;8.02;;;;;;;;;;5011314;28;20045;-60
2023/06/06 07:47:06;;;;;;;15.77;8.32;;;;;;;;;;5012135;28;20034;-60
2023/06/06 07:49:31;;;;;;;12.63;7.28;;;;;;;;;;5021223;28;20029;-61
2023/06/06 07:51:57;;;;;;;15.43;8.02;;;;;;;;;;5031166;28;20104;-59
2023/06/06 07:54:22;;;;;;;15.00;8.15;;;;;;;;;;5031909;28;20370;-59
2023/06/06 07:56:48;;;;;;;17.25;8.00;;;;;;;;;;5012408;28;20042;-59
2023/06/06 07:59:13;;;;;;;12.15;7.47;;;;;;;;;;5016389;28;20470;-60
2023/06/06 08:01:39;;;;;;;14.23;7.63;;;;;;;;;;5030805;28;20026;-59
2023/06/06 08:04:07;;;;;;;19.20;8.38;;;;;;;;;;5019477;28;20084;-61
2023/06/06 08:06:37;;;;;;;13.68;8.25;;;;;;;;;;5002962;28;20030;-60
2023/06/06 08:09:06;;;;;;;17.02;7.65;;;;;;;;;;5013609;28;20033;-60
2023/06/06 08:11:32;;;;;;;12.45;7.90;;;;;;;;;;5031352;28;20033;-60
2023/06/06 08:13:57;;;;;;;14.23;8.00;;;;;;;;;;5006855;28;20420;-60
2023/06/06 08:16:23;;;;;;;15.18;7.90;;;;;;;;;;5019403;28;20481;-61
2023/06/06 08:18:48;;;;;;;13.18;8.23;;;;;;;;;;5030734;28;20033;-60
2023/06/06 08:21:14;;;;;;;21.60;8.63;;;;;;;;;;5030396;28;20030;-60
2023/06/06 08:23:39;;;;;;;14.35;8.00;;;;;;;;;;5030757;28;20030;-60
2023/06/06 08:26:05;;;;;;;14.60;8.35;;;;;;;;;;5027074;28;20450;-59
2023/06/06 08:28:30;;;;;;;15.02;7.90;;;;;;;;;;5030260;28;20037;-60
2023/06/06 08:30:55;;;;;;;13.77;7.75;;;;;;;;;;5011316;28;20502;-60
2023/06/06 08:33:21;;;;;;;13.05;8.00;;;;;;;;;;5011432;28;20046;-60
2023/06/06 08:35:47;;;;;;;13.40;7.70;;;;;;;;;;5014691;28;20033;-60
2023/06/06 08:38:13;;;;;;;13.77;8.15;;;;;;;;;;5031310;28;20117;-59
2023/06/06 08:40:39;;;;;;;13.32;7.93;;;;;;;;;;5030066;28;20058;-60
2023/06/06 08:43:06;;;;;;;12.50;7.40;;;;;;;;;;5032615;28;20053;-60
2023/06/06 08:45:32;;;;;;;12.95;7.38;;;;;;;;;;5031280;28;20125;-60
2023/06/06 08:48:04;;;;;;;15.02;7.95;;;;;;;;;;5021123;28;20150;-60
2023/06/06 08:50:30;;;;;;;15.18;7.80;;;;;;;;;;5035265;28;20112;-60
2023/06/06 08:52:56;;;;;;;24.40;12.05;;;;;;;;;;5034457;28;20167;-60
2023/06/06 08:55:22;;;;;;;13.02;7.60;;;;;;;;;;5030858;28;20454;-60
2023/06/06 08:57:47;;;;;;;11.40;7.38;;;;;;;;;;5013420;28;20041;-59
2023/06/06 09:00:21;;;;;;;12.45;7.25;;;;;;;;;;5004495;28;20031;-60
2023/06/06 09:02:52;;;;;;;14.60;7.65;;;;;;;;;;4994777;28;20042;-60
2023/06/06 09:05:19;;;;;;;16.02;7.00;;;;;;;;;;5001115;28;20466;-58
2023/06/06 09:07:46;;;;;;;17.83;7.25;;;;;;;;;;5027095;28;20041;-59
2023/06/06 09:10:12;;;;;;;12.13;6.78;;;;;;;;;;5034756;28;20037;-58
2023/06/06 09:12:45;;;;;;;10.00;7.00;;;;;;;;;;5034495;28;20030;-59
2023/06/06 09:15:10;;;;;;;14.15;6.90;;;;;;;;;;5032649;28;20079;-59
2023/06/06 09:17:37;;;;;;;11.23;6.97;;;;;;;;;;5034675;28;20386;-59
2023/06/06 09:20:07;;;;;;;13.48;6.80;;;;;;;;;;5031697;28;20091;-59
2023/06/06 09:22:40;;;;;;;10.45;6.60;;;;;;;;;;5019771;28;20486;-59
2023/06/06 09:25:06;;;;;;;13.13;6.57;;;;;;;;;;5030315;28;20025;-59
2023/06/06 09:27:31;;;;;;;11.65;6.88;;;;;;;;;;5014535;28;20156;-60
2023/06/06 09:29:57;;;;;;;11.07;6.60;;;;;;;;;;5011392;28;20829;-59
2023/06/06 09:32:29;;;;;;;15.60;6.47;;;;;;;;;;4998380;28;20065;-60
2023/06/06 09:34:59;;;;;;;10.23;6.22;;;;;;;;;;4994436;28;20088;-59
2023/06/06 09:37:27;;;;;;;10.40;6.72;;;;;;;;;;5000122;28;20376;-58
2023/06/06 09:40:22;;;;;;;12.15;7.10;;;;;;;;;;5014459;28;20146;-59
2023/06/06 09:42:49;;;;;;;13.63;6.47;;;;;;;;;;5031799;28;20041;-59
2023/06/06 09:45:19;;;;;;;15.65;6.78;;;;;;;;;;4996667;28;20038;-60
2023/06/06 09:47:46;;;;;;;12.73;6.47;;;;;;;;;;5006079;28;20034;-60
2023/06/06 09:50:13;;;;;;;10.60;6.05;;;;;;;;;;5020158;28;20034;-60
2023/06/06 09:52:39;;;;;;;292.25;17.58;;;;;;;;;;5002834;28;20119;-60
2023/06/06 09:55:09;;;;;;;15.43;5.72;;;;;;;;;;5011868;28;20057;-60
2023/06/06 09:57:36;;;;;;;54.35;8.70;;;;;;;;;;5000208;28;20034;-59
2023/06/06 10:00:15;;;;;;;13.52;6.45;;;;;;;;;;5019557;28;20045;-59
2023/06/06 10:02:46;;;;;;;10.60;6.40;;;;;;;;;;5032225;28;20450;-60
2023/06/06 10:05:13;;;;;;;17.67;5.82;;;;;;;;;;5034128;28;20044;-60
2023/06/06 10:07:41;;;;;;;9.95;6.35;;;;;;;;;;5033784;28;20043;-60
2023/06/06 10:10:11;;;;;;;9.45;5.50;;;;;;;;;;5016975;28;20399;-60
2023/06/06 10:12:37;;;;;;;;;;;;;;;;;;5011110;28;20033;-61
2023/06/06 10:15:03;;;;;;;11.80;5.93;;;;;;;;;;5013706;28;20277;-61
2023/06/06 10:17:32;;;;;;;8.35;5.38;;;;;;;;;;5013853;28;20116;-61
2023/06/06 10:20:05;;;;;;;8.30;5.80;;;;;;;;;;5016817;28;20525;-60
2023/06/06 10:22:31;;;;;;;9.40;5.90;;;;;;;;;;5033542;28;20026;-60
2023/06/06 10:24:57;;;;;;;11.27;5.70;;;;;;;;;;5032731;28;20070;-59
2023/06/06 10:27:26;;;;;;;10.18;6.03;;;;;;;;;;5033522;28;20060;-60
2023/06/06 10:30:04;;;;;;;10.57;5.18;;;;;;;;;;5015376;28;20397;-60
2023/06/06 10:32:52;;;;;;;8.00;5.28;;;;;;;;;;5033402;28;20037;-61
2023/06/06 10:35:19;;;;;;;8.10;5.40;;;;;;;;;;5032228;28;20030;-62
2023/06/06 10:38:08;;;;;;;9.60;5.20;;;;;;;;;;5032379;28;20021;-60
2023/06/06 10:40:49;;;;;;;10.35;5.65;;;;;;;;;;5017128;28;20054;-59
2023/06/06 10:43:15;;;;;;;9.02;5.07;;;;;;;;;;4993918;28;20058;-60
2023/06/06 10:45:45;;;;;;;8.88;4.80;;;;;;;;;;5002359;28;20053;-60
2023/06/06 10:48:10;;;;;;;8.07;5.00;;;;;;;;;;5020634;28;20038;-61
2023/06/06 10:50:36;;;;;;;9.02;4.40;;;;;;;;;;5013321;28;20367;-59
2023/06/06 10:53:06;;;;;;;8.13;4.57;;;;;;;;;;5012485;28;20060;-58
2023/06/06 10:55:32;;;;;;;8.93;5.20;;;;;;;;;;5023824;28;20120;-57
2023/06/06 10:58:05;;;;;;;8.80;4.75;;;;;;;;;;5018143;28;20026;-56
2023/06/06 11:00:35;;;;;;;7.20;4.20;;;;;;;;;;5013115;28;20102;-54
2023/06/06 11:03:07;;;;;;;7.88;4.15;;;;;;;;;;5009062;28;20037;-55
2023/06/06 11:05:33;;;;;;;8.48;4.75;;;;;;;;;;4993390;28;20034;-55
2023/06/06 11:08:02;;;;;;;9.88;4.70;;;;;;;;;;4997335;28;20037;-55
2023/06/06 11:10:27;;;;;;;8.73;4.40;;;;;;;;;;5014638;28;20474;-52
2023/06/06 11:12:55;;;;;;;8.25;4.03;;;;;;;;;;5011716;28;20041;-52
2023/06/06 11:15:29;;;;;;;5.43;3.83;;;;;;;;;;5031474;28;20071;-53
2023/06/06 11:18:03;;;;;;;9.68;4.57;;;;;;;;;;5023316;28;20133;-52
2023/06/06 11:20:40;;;;;;;7.43;3.90;;;;;;;;;;5023036;28;20033;-56
2023/06/06 11:23:08;;;;;;;7.22;4.10;;;;;;;;;;5030339;28;20053;-56
2023/06/06 11:25:37;;;;;;;6.50;3.67;;;;;;;;;;5021985;28;20077;-55
2023/06/06 11:28:03;;;;;;;7.40;3.97;;;;;;;;;;5031619;28;20126;-56
2023/06/06 11:30:33;;;;;;;8.00;3.85;;;;;;;;;;5031053;28;20029;-56
2023/06/06 11:33:00;;;;;;;7.35;3.40;;;;;;;;;;5017298;28;20161;-57
2023/06/06 11:35:28;;;;;;;7.78;3.95;;;;;;;;;;5019621;28;20119;-57
2023/06/06 11:37:55;;;;;;;6.22;3.50;;;;;;;;;;5013328;28;20034;-57
2023/06/06 11:40:23;;;;;;;7.20;3.60;;;;;;;;;;5012353;28;20054;-55
2023/06/06 11:42:49;;;;;;;5.88;3.75;;;;;;;;;;5011280;28;20387;-55
2023/06/06 11:45:15;;;;;;;4.82;3.30;;;;;;;;;;5021561;28;20033;-56
2023/06/06 11:47:45;;;;;;;6.07;3.88;;;;;;;;;;5031862;28;20099;-57
2023/06/06 11:50:12;;;;;;;6.20;3.45;;;;;;;;;;5027184;28;20441;-57
2023/06/06 11:52:44;;;;;;;7.63;3.83;;;;;;;;;;4992667;28;20047;-58
2023/06/06 11:55:10;;;;;;;7.30;3.67;;;;;;;;;;5012251;28;20057;-57
2023/06/06 11:57:35;;;;;;;9.20;4.47;;;;;;;;;;5011998;28;20073;-59
2023/06/06 12:00:14;;;;;;;6.05;4.00;;;;;;;;;;5011132;28;20122;-55
2023/06/06 12:02:40;;;;;;;8.27;4.03;;;;;;;;;;5015860;28;20111;-55
2023/06/06 12:05:16;;;;;;;8.00;4.10;;;;;;;;;;5031357;28;20027;-56
2023/06/06 12:07:42;;;;;;;7.55;3.75;;;;;;;;;;5031708;28;20052;-57
2023/06/06 12:10:07;;;;;;;7.20;3.65;;;;;;;;;;5027721;28;20060;-58
2023/06/06 12:12:43;;;;;;;6.88;3.60;;;;;;;;;;5012087;28;20378;-59
2023/06/06 12:15:09;;;;;;;6.28;3.40;;;;;;;;;;5011645;28;20041;-56
2023/06/06 12:17:34;;;;;;;6.68;3.63;;;;;;;;;;5011152;28;20034;-55
2023/06/06 12:20:00;;;;;;;7.75;3.50;;;;;;;;;;5010912;28;20032;-56
2023/06/06 12:22:33;;;;;;;7.15;3.35;;;;;;;;;;5011828;28;20030;-56
2023/06/06 12:24:58;;;;;;;7.15;3.67;;;;;;;;;;5008860;28;20146;-55
2023/06/06 12:27:27;;;;;;;7.78;3.80;;;;;;;;;;5011838;28;20482;-61
2023/06/06 12:29:55;;;;;;;7.28;3.40;;;;;;;;;;5009545;28;20382;-55
2023/06/06 12:32:29;;;;;;;8.45;3.67;;;;;;;;;;4993628;28;20478;-59
2023/06/06 12:35:05;;;;;;;9.80;3.72;;;;;;;;;;5010183;28;20360;-60
2023/06/06 12:37:45;;;;;;;7.18;3.42;;;;;;;;;;5011544;28;20035;-59
2023/06/06 12:40:14;;;;;;;9.00;3.47;;;;;;;;;;5011039;28;20137;-59
2023/06/06 12:42:41;;;;;;;11.85;3.53;;;;;;;;;;5008275;28;20038;-59
2023/06/06 12:45:07;;;;;;;5.43;3.42;;;;;;;;;;5012799;28;20252;-60
2023/06/06 12:47:33;;;;;;;10.40;3.53;;;;;;;;;;5011617;28;20037;-57
2023/06/06 12:50:00;;;;;;;7.68;3.50;;;;;;;;;;5010928;28;20036;-56
2023/06/06 12:52:26;;;;;;;6.70;3.85;;;;;;;;;;5008411;28;20096;-57
2023/06/06 12:54:51;;;;;;;8.25;3.92;;;;;;;;;;4996042;28;20046;-56
2023/06/06 12:57:17;;;;;;;8.73;3.30;;;;;;;;;;5011535;28;20045;-54
2023/06/06 12:59:44;;;;;;;5.90;3.42;;;;;;;;;;5019203;28;20034;-55
2023/06/06 13:02:13;;;;;;;6.63;3.15;;;;;;;;;;5011149;28;20042;-54
2023/06/06 13:04:40;;;;;;;4.82;3.65;;;;;;;;;;5011529;28;20034;-57
2023/06/06 13:07:07;;;;;;;6.30;3.63;;;;;;;;;;5025688;28;20087;-56
2023/06/06 13:09:32;;;;;;;7.10;3.30;;;;;;;;;;5013466;28;20033;-57
2023/06/06 13:11:59;;;;;;;6.20;3.50;;;;;;;;;;4999705;28;20041;-59
2023/06/06 13:14:26;;;;;;;8.63;3.38;;;;;;;;;;4991517;28;20153;-56
2023/06/06 13:16:51;;;;;;;7.10;3.30;;;;;;;;;;5009395;28;20118;-54
2023/06/06 13:19:17;;;;;;;5.30;3.30;;;;;;;;;;5011383;28;20029;-51
2023/06/06 13:21:46;;;;;;;7.72;3.40;;;;;;;;;;5010185;28;20421;-56
2023/06/06 13:24:13;;;;;;;9.82;3.70;;;;;;;;;;5005459;28;20040;-57
2023/06/06 13:26:39;;;;;;;8.13;3.58;;;;;;;;;;5007472;28;20053;-54
2023/06/06 13:29:05;;;;;;;6.72;3.50;;;;;;;;;;5010600;28;20064;-55
2023/06/06 13:31:30;;;;;;;8.38;3.40;;;;;;;;;;5028251;28;20061;-56
2023/06/06 13:33:55;;;;;;;5.70;3.30;;;;;;;;;;5030596;28;20042;-57
2023/06/06 13:36:21;;;;;;;4.47;3.00;;;;;;;;;;5014896;28;20391;-56
2023/06/06 13:38:46;;;;;;;6.80;3.35;;;;;;;;;;5014259;28;20037;-57
2023/06/06 13:41:12;;;;;;;9.43;3.58;;;;;;;;;;5027763;28;20041;-56
2023/06/06 13:43:38;;;;;;;6.10;3.60;;;;;;;;;;5034342;28;20057;-57
2023/06/06 13:46:04;;;;;;;7.47;3.35;;;;;;;;;;5013424;28;20084;-54
2023/06/06 13:48:29;;;;;;;5.80;3.20;;;;;;;;;;5014263;28;20026;-56
2023/06/06 13:50:55;;;;;;;5.30;3.10;;;;;;;;;;5001415;28;20121;-55
2023/06/06 13:53:22;;;;;;;6.85;3.60;;;;;;;;;;5020775;28;20052;-56
2023/06/06 13:55:47;;;;;;;6.05;3.28;;;;;;;;;;5014133;28;20030;-58
2023/06/06 13:58:20;;;;;;;6.47;3.22;;;;;;;;;;5020022;28;20040;-57
2023/06/06 14:00:46;;;;;;;6.53;3.55;;;;;;;;;;5034111;28;20036;-55
2023/06/06 14:03:12;;;;;;;6.40;3.53;;;;;;;;;;5033314;28;20033;-57
2023/06/06 14:05:37;;;;;;;4.80;3.53;;;;;;;;;;5034106;28;20128;-56
2023/06/06 14:08:03;;;;;;;8.13;3.60;;;;;;;;;;5032854;28;20032;-56
2023/06/06 14:10:29;;;;;;;6.03;3.28;;;;;;;;;;5019522;28;20029;-56
2023/06/06 14:12:54;;;;;;;5.15;3.22;;;;;;;;;;5012028;28;20124;-56
2023/06/06 14:15:20;;;;;;;6.57;3.15;;;;;;;;;;5013810;28;20485;-54
2023/06/06 14:17:45;;;;;;;5.93;3.00;;;;;;;;;;5014097;28;20530;-54
2023/06/06 14:20:13;;;;;;;6.22;3.40;;;;;;;;;;5012904;28;20546;-50
2023/06/06 14:22:40;;;;;;;7.55;3.10;;;;;;;;;;5013506;28;20352;-56
2023/06/06 14:25:06;;;;;;;11.65;3.33;;;;;;;;;;5011383;28;20072;-56
2023/06/06 14:27:32;;;;;;;5.43;3.00;;;;;;;;;;5012418;28;20081;-57
2023/06/06 14:29:58;;;;;;;7.93;3.00;;;;;;;;;;5013076;28;20058;-56
2023/06/06 14:32:30;;;;;;;6.13;2.92;;;;;;;;;;5013743;28;20467;-56
2023/06/06 14:34:56;;;;;;;4.32;2.90;;;;;;;;;;5013127;28;20065;-57